createdAt,value
2017-03-21T00:00:00.457Z,11.19
2017-03-21T00:00:04.782Z,11.12
2017-03-21T00:00:09.248Z,11.12
2017-03-21T00:00:13.564Z,11.17
2017-03-21T00:00:18.006Z,11.12
2017-03-21T00:00:22.434Z,11.2
2017-03-21T00:00:26.869Z,11.13
2017-03-21T00:00:31.177Z,11.17
2017-03-21T00:00:35.610Z,11.16
2017-03-21T00:00:39.800Z,11.2
2017-03-21T00:00:44.106Z,11.12
2017-03-21T00:00:48.416Z,11.12
2017-03-21T00:00:52.866Z,11.17
2017-03-21T00:00:57.059Z,11.12
2017-03-21T00:01:01.365Z,11.16
2017-03-21T00:01:06.043Z,11.17
2017-03-21T00:01:10.483Z,11.11
2017-03-21T00:01:14.912Z,11.17
2017-03-21T00:01:19.232Z,11.2
2017-03-21T00:01:23.544Z,11.2
2017-03-21T00:01:27.856Z,11.21
2017-03-21T00:01:32.167Z,11.16
2017-03-21T00:01:36.478Z,11.12
2017-03-21T00:01:40.789Z,11.11
2017-03-21T00:01:45.139Z,11.16
2017-03-21T00:01:49.569Z,11.2
2017-03-21T00:01:53.880Z,11.17
2017-03-21T00:01:58.318Z,11.16
2017-03-21T00:02:02.750Z,11.17
2017-03-21T00:02:06.832Z,11.19
2017-03-21T00:02:11.263Z,11.09
2017-03-21T00:02:15.693Z,11.12
2017-03-21T00:02:20.130Z,11.11
2017-03-21T00:02:24.447Z,11.12
2017-03-21T00:02:28.765Z,11.21
2017-03-21T00:02:33.227Z,11.19
2017-03-21T00:02:37.665Z,11.16
2017-03-21T00:02:42.105Z,11.17
2017-03-21T00:02:46.422Z,11.21
2017-03-21T00:02:50.751Z,11.16
2017-03-21T00:02:55.110Z,11.23
2017-03-21T00:02:59.549Z,11.17
2017-03-21T00:03:03.993Z,11.24
2017-03-21T00:03:08.439Z,11.2
2017-03-21T00:03:12.862Z,11.16
2017-03-21T00:03:17.285Z,11.26
2017-03-21T00:03:21.373Z,11.16
2017-03-21T00:03:25.820Z,11.21
2017-03-21T00:03:30.258Z,11.2
2017-03-21T00:03:34.579Z,11.23
2017-03-21T00:03:38.910Z,11.19
2017-03-21T00:03:43.357Z,11.13
2017-03-21T00:03:47.790Z,11.21
2017-03-21T00:03:52.232Z,11.19
2017-03-21T00:03:56.434Z,11.13
2017-03-21T00:04:00.804Z,11.17
2017-03-21T00:04:05.252Z,11.12
2017-03-21T00:04:09.456Z,11.19
2017-03-21T00:04:13.657Z,11.27
2017-03-21T00:04:17.978Z,11.17
2017-03-21T00:04:22.301Z,11.11
2017-03-21T00:04:26.737Z,11.11
2017-03-21T00:04:31.050Z,11.21
2017-03-21T00:04:35.370Z,11.19
2017-03-21T00:04:39.684Z,11.19
2017-03-21T00:04:43.878Z,11.19
2017-03-21T00:04:48.326Z,11.21
2017-03-21T00:04:52.792Z,11.19
2017-03-21T00:04:57.237Z,11.19
2017-03-21T00:05:01.562Z,11.16
2017-03-21T00:05:05.869Z,11.21
2017-03-21T00:05:10.345Z,11.21
2017-03-21T00:05:14.661Z,11.16
2017-03-21T00:05:18.973Z,11.17
2017-03-21T00:05:23.171Z,11.2
2017-03-21T00:05:27.607Z,11.2
2017-03-21T00:05:31.925Z,11.17
2017-03-21T00:05:36.350Z,11.19
2017-03-21T00:05:40.788Z,11.21
2017-03-21T00:05:45.222Z,11.17
2017-03-21T00:05:49.654Z,11.17
2017-03-21T00:05:54.085Z,11.16
2017-03-21T00:05:58.413Z,11.17
2017-03-21T00:06:03.080Z,11.13
2017-03-21T00:06:07.393Z,11.21
2017-03-21T00:06:11.705Z,11.21
2017-03-21T00:06:15.938Z,11.23
2017-03-21T00:06:20.371Z,11.26
2017-03-21T00:06:24.802Z,11.16
2017-03-21T00:06:29.236Z,11.17
2017-03-21T00:06:33.555Z,11.2
2017-03-21T00:06:37.865Z,11.17
2017-03-21T00:06:42.299Z,11.13
2017-03-21T00:06:46.732Z,11.19
2017-03-21T00:06:51.162Z,11.17
2017-03-21T00:06:55.586Z,11.27
2017-03-21T00:06:59.902Z,11.17
2017-03-21T00:07:04.253Z,11.16
2017-03-21T00:07:08.694Z,11.16
2017-03-21T00:07:12.893Z,11.27
2017-03-21T00:07:17.092Z,11.27
2017-03-21T00:07:21.414Z,11.3
2017-03-21T00:07:25.729Z,11.12
2017-03-21T00:07:30.043Z,11.28
2017-03-21T00:07:34.367Z,11.19
2017-03-21T00:07:38.837Z,11.13
2017-03-21T00:07:43.204Z,11.28
2017-03-21T00:07:47.643Z,11.27
2017-03-21T00:07:52.078Z,11.28
2017-03-21T00:07:56.412Z,11.3
2017-03-21T00:08:00.856Z,11.13
2017-03-21T00:08:05.295Z,11.2
2017-03-21T00:08:09.736Z,11.28
2017-03-21T00:08:14.075Z,11.31
2017-03-21T00:08:18.391Z,11.28
2017-03-21T00:08:22.474Z,11.28
2017-03-21T00:08:26.806Z,11.31
2017-03-21T00:08:31.130Z,11.36
2017-03-21T00:08:35.444Z,11.24
2017-03-21T00:08:39.754Z,11.26
2017-03-21T00:08:44.069Z,11.23
2017-03-21T00:08:48.507Z,11.27
2017-03-21T00:08:52.946Z,11.28
2017-03-21T00:08:57.266Z,11.28
2017-03-21T00:09:01.702Z,11.28
2017-03-21T00:09:06.152Z,11.27
2017-03-21T00:09:10.624Z,11.28
2017-03-21T00:09:14.946Z,11.28
2017-03-21T00:09:19.270Z,11.26
2017-03-21T00:09:23.718Z,11.26
2017-03-21T00:09:28.161Z,11.24
2017-03-21T00:09:32.473Z,11.28
2017-03-21T00:09:36.794Z,11.28
2017-03-21T00:09:41.119Z,11.27
2017-03-21T00:09:45.561Z,11.28
2017-03-21T00:09:49.992Z,11.35
2017-03-21T00:09:54.436Z,11.28
2017-03-21T00:09:58.882Z,11.28
2017-03-21T00:10:03.317Z,11.28
2017-03-21T00:10:07.524Z,11.3
2017-03-21T00:10:11.958Z,11.33
2017-03-21T00:10:16.190Z,11.38
2017-03-21T00:10:20.391Z,11.28
2017-03-21T00:10:24.703Z,11.28
2017-03-21T00:10:29.135Z,11.28
2017-03-21T00:10:33.449Z,11.27
2017-03-21T00:10:37.648Z,11.28
2017-03-21T00:10:41.954Z,11.3
2017-03-21T00:10:46.271Z,11.24
2017-03-21T00:10:50.703Z,11.28
2017-03-21T00:10:55.022Z,11.31
2017-03-21T00:10:59.214Z,11.26
2017-03-21T00:11:03.646Z,11.28
2017-03-21T00:11:08.075Z,11.28
2017-03-21T00:11:12.503Z,11.28
2017-03-21T00:11:16.823Z,11.27
2017-03-21T00:11:20.909Z,11.31
2017-03-21T00:11:25.217Z,11.33
2017-03-21T00:11:29.644Z,11.31
2017-03-21T00:11:34.072Z,11.31
2017-03-21T00:11:38.506Z,11.28
2017-03-21T00:11:42.582Z,11.35
2017-03-21T00:11:47.008Z,11.26
2017-03-21T00:11:51.439Z,11.31
2017-03-21T00:11:55.890Z,11.31
2017-03-21T00:12:00.320Z,11.3
2017-03-21T00:12:04.531Z,11.33
2017-03-21T00:12:08.615Z,11.28
2017-03-21T00:12:12.928Z,11.28
2017-03-21T00:12:17.125Z,11.3
2017-03-21T00:12:21.441Z,11.35
2017-03-21T00:12:25.763Z,11.31
2017-03-21T00:12:30.193Z,11.31
2017-03-21T00:12:34.631Z,11.31
2017-03-21T00:12:38.951Z,11.3
2017-03-21T00:12:43.401Z,11.33
2017-03-21T00:12:47.845Z,11.31
2017-03-21T00:12:52.291Z,11.36
2017-03-21T00:12:56.623Z,11.3
2017-03-21T00:13:01.095Z,11.28
2017-03-21T00:13:05.532Z,11.3
2017-03-21T00:13:09.974Z,11.27
2017-03-21T00:13:14.415Z,11.33
2017-03-21T00:13:18.905Z,11.27
2017-03-21T00:13:23.344Z,11.36
2017-03-21T00:13:27.666Z,11.3
2017-03-21T00:13:31.998Z,11.24
2017-03-21T00:13:36.442Z,11.26
2017-03-21T00:13:40.766Z,11.36
2017-03-21T00:13:45.083Z,11.27
2017-03-21T00:13:49.526Z,11.26
2017-03-21T00:13:53.892Z,11.42
2017-03-21T00:13:58.332Z,11.3
2017-03-21T00:14:02.757Z,11.3
2017-03-21T00:14:07.000Z,11.26
2017-03-21T00:14:11.330Z,11.26
2017-03-21T00:14:15.646Z,11.31
2017-03-21T00:14:20.092Z,11.3
2017-03-21T00:14:24.300Z,11.31
2017-03-21T00:14:28.735Z,11.33
2017-03-21T00:14:33.158Z,11.31
2017-03-21T00:14:37.591Z,11.31
2017-03-21T00:14:42.030Z,11.31
2017-03-21T00:14:46.224Z,11.3
2017-03-21T00:14:50.659Z,11.3
2017-03-21T00:14:54.980Z,11.35
2017-03-21T00:14:59.419Z,11.35
2017-03-21T00:15:03.950Z,11.31
2017-03-21T00:15:08.374Z,11.28
2017-03-21T00:15:12.809Z,11.28
2017-03-21T00:15:17.243Z,11.28
2017-03-21T00:15:21.554Z,11.28
2017-03-21T00:15:25.751Z,11.31
2017-03-21T00:15:30.066Z,11.28
2017-03-21T00:15:34.255Z,11.31
2017-03-21T00:15:38.573Z,11.28
2017-03-21T00:15:42.777Z,11.38
2017-03-21T00:15:47.225Z,11.28
2017-03-21T00:15:51.658Z,11.31
2017-03-21T00:15:56.088Z,11.31
2017-03-21T00:16:00.399Z,11.27
2017-03-21T00:16:04.718Z,11.31
2017-03-21T00:16:09.027Z,11.28
2017-03-21T00:16:13.339Z,11.31
2017-03-21T00:16:17.548Z,11.31
2017-03-21T00:16:21.740Z,11.28
2017-03-21T00:16:25.938Z,11.28
2017-03-21T00:16:30.265Z,11.28
2017-03-21T00:16:34.577Z,11.28
2017-03-21T00:16:39.008Z,11.26
2017-03-21T00:16:43.317Z,11.28
2017-03-21T00:16:47.753Z,11.3
2017-03-21T00:16:52.065Z,11.3
2017-03-21T00:16:56.260Z,11.3
2017-03-21T00:17:00.575Z,11.26
2017-03-21T00:17:04.909Z,11.26
2017-03-21T00:17:09.267Z,11.24
2017-03-21T00:17:13.461Z,11.31
2017-03-21T00:17:17.894Z,11.26
2017-03-21T00:17:22.213Z,11.31
2017-03-21T00:17:26.683Z,11.3
2017-03-21T00:17:31.007Z,11.33
2017-03-21T00:17:35.205Z,11.23
2017-03-21T00:17:39.569Z,11.24
2017-03-21T00:17:44.009Z,11.31
2017-03-21T00:17:48.443Z,11.27
2017-03-21T00:17:52.883Z,11.31
2017-03-21T00:17:56.968Z,11.3
2017-03-21T00:18:01.292Z,11.3
2017-03-21T00:18:05.611Z,11.27
2017-03-21T00:18:09.927Z,11.35
2017-03-21T00:18:14.411Z,11.26
2017-03-21T00:18:18.849Z,11.19
2017-03-21T00:18:23.174Z,11.31
2017-03-21T00:18:27.616Z,11.33
2017-03-21T00:18:31.946Z,11.3
2017-03-21T00:18:36.382Z,11.3
2017-03-21T00:18:40.715Z,11.26
2017-03-21T00:18:45.037Z,11.26
2017-03-21T00:18:49.476Z,11.26
2017-03-21T00:18:53.783Z,11.19
2017-03-21T00:18:58.235Z,11.26
2017-03-21T00:19:02.653Z,11.21
2017-03-21T00:19:07.106Z,11.13
2017-03-21T00:19:11.542Z,11.33
2017-03-21T00:19:15.980Z,11.13
2017-03-21T00:19:20.305Z,11.28
2017-03-21T00:19:24.621Z,11.3
2017-03-21T00:19:28.825Z,11.17
2017-03-21T00:19:33.262Z,11.23
2017-03-21T00:19:37.467Z,11.28
2017-03-21T00:19:41.899Z,11.28
2017-03-21T00:19:45.974Z,11.13
2017-03-21T00:19:50.291Z,11.26
2017-03-21T00:19:54.607Z,11.24
2017-03-21T00:19:58.933Z,11.27
2017-03-21T00:20:03.250Z,11.19
2017-03-21T00:20:07.444Z,11.21
2017-03-21T00:20:11.920Z,11.28
2017-03-21T00:20:16.356Z,11.26
2017-03-21T00:20:20.668Z,11.28
2017-03-21T00:20:24.982Z,11.21
2017-03-21T00:20:29.432Z,11.28
2017-03-21T00:20:33.621Z,11.19
2017-03-21T00:20:37.933Z,11.21
2017-03-21T00:20:42.130Z,11.24
2017-03-21T00:20:46.566Z,11.16
2017-03-21T00:20:50.988Z,11.16
2017-03-21T00:20:55.414Z,11.27
2017-03-21T00:20:59.731Z,11.21
2017-03-21T00:21:04.143Z,11.26
2017-03-21T00:21:08.571Z,11.27
2017-03-21T00:21:12.880Z,11.17
2017-03-21T00:21:17.316Z,11.3
2017-03-21T00:21:21.556Z,11.33
2017-03-21T00:21:25.634Z,11.2
2017-03-21T00:21:29.714Z,11.33
2017-03-21T00:21:34.157Z,11.27
2017-03-21T00:21:38.502Z,11.27
2017-03-21T00:21:42.844Z,11.33
2017-03-21T00:21:47.157Z,11.3
2017-03-21T00:21:51.473Z,11.19
2017-03-21T00:21:55.899Z,11.24
2017-03-21T00:22:00.230Z,11.28
2017-03-21T00:22:04.690Z,11.17
2017-03-21T00:22:09.008Z,11.3
2017-03-21T00:22:13.443Z,11.33
2017-03-21T00:22:17.879Z,11.33
2017-03-21T00:22:22.198Z,11.27
2017-03-21T00:22:26.284Z,11.26
2017-03-21T00:22:30.713Z,11.28
2017-03-21T00:22:35.146Z,11.28
2017-03-21T00:22:39.354Z,11.26
2017-03-21T00:22:43.816Z,11.21
2017-03-21T00:22:48.140Z,11.24
2017-03-21T00:22:52.454Z,11.24
2017-03-21T00:22:56.894Z,11.3
2017-03-21T00:23:01.336Z,11.3
2017-03-21T00:23:05.661Z,11.3
2017-03-21T00:23:10.093Z,11.24
2017-03-21T00:23:14.415Z,11.26
2017-03-21T00:23:18.625Z,11.2
2017-03-21T00:23:22.987Z,11.3
2017-03-21T00:23:27.308Z,11.2
2017-03-21T00:23:31.636Z,11.23
2017-03-21T00:23:35.963Z,11.23
2017-03-21T00:23:40.206Z,11.3
2017-03-21T00:23:44.650Z,11.26
2017-03-21T00:23:49.092Z,11.28
2017-03-21T00:23:53.425Z,11.24
2017-03-21T00:23:57.870Z,11.3
2017-03-21T00:24:02.307Z,11.2
2017-03-21T00:24:06.763Z,11.3
2017-03-21T00:24:11.232Z,11.24
2017-03-21T00:24:15.665Z,11.27
2017-03-21T00:24:19.983Z,11.26
2017-03-21T00:24:24.305Z,11.23
2017-03-21T00:24:28.781Z,11.3
2017-03-21T00:24:33.211Z,11.28
2017-03-21T00:24:37.524Z,11.27
2017-03-21T00:24:41.835Z,11.26
2017-03-21T00:24:46.272Z,11.3
2017-03-21T00:24:50.588Z,11.33
2017-03-21T00:24:54.668Z,11.31
2017-03-21T00:24:59.105Z,11.3
2017-03-21T00:25:03.420Z,11.28
2017-03-21T00:25:07.846Z,11.3
2017-03-21T00:25:12.275Z,11.28
2017-03-21T00:25:16.587Z,11.24
2017-03-21T00:25:20.783Z,11.28
2017-03-21T00:25:25.209Z,11.27
2017-03-21T00:25:29.634Z,11.28
2017-03-21T00:25:34.068Z,11.26
2017-03-21T00:25:38.267Z,11.28
2017-03-21T00:25:42.461Z,11.28
2017-03-21T00:25:46.883Z,11.28
2017-03-21T00:25:51.199Z,11.33
2017-03-21T00:25:55.635Z,11.31
2017-03-21T00:25:59.957Z,11.27
2017-03-21T00:26:04.468Z,11.26
2017-03-21T00:26:08.899Z,11.31
2017-03-21T00:26:13.222Z,11.26
2017-03-21T00:26:17.655Z,11.24
2017-03-21T00:26:22.089Z,11.26
2017-03-21T00:26:26.412Z,11.28
2017-03-21T00:26:30.497Z,11.26
2017-03-21T00:26:34.809Z,11.27
2017-03-21T00:26:39.125Z,11.26
2017-03-21T00:26:43.437Z,11.3
2017-03-21T00:26:47.907Z,11.26
2017-03-21T00:26:52.215Z,11.27
2017-03-21T00:26:56.287Z,11.26
2017-03-21T00:27:00.610Z,11.21
2017-03-21T00:27:05.042Z,11.26
2017-03-21T00:27:09.350Z,11.27
2017-03-21T00:27:13.666Z,11.28
2017-03-21T00:27:18.097Z,11.28
2017-03-21T00:27:22.526Z,11.27
2017-03-21T00:27:26.959Z,11.28
2017-03-21T00:27:31.270Z,11.27
2017-03-21T00:27:35.606Z,11.24
2017-03-21T00:27:39.929Z,11.28
2017-03-21T00:27:44.119Z,11.23
2017-03-21T00:27:48.549Z,11.28
2017-03-21T00:27:52.988Z,11.31
2017-03-21T00:27:57.414Z,11.27
2017-03-21T00:28:01.841Z,11.3
2017-03-21T00:28:06.142Z,11.31
2017-03-21T00:28:10.609Z,11.24
2017-03-21T00:28:15.047Z,11.28
2017-03-21T00:28:19.482Z,11.26
2017-03-21T00:28:23.924Z,11.16
2017-03-21T00:28:28.367Z,11.2
2017-03-21T00:28:32.805Z,11.24
2017-03-21T00:28:37.133Z,11.16
2017-03-21T00:28:41.570Z,11.28
2017-03-21T00:28:46.004Z,11.31
2017-03-21T00:28:50.439Z,11.19
2017-03-21T00:28:54.877Z,11.24
2017-03-21T00:28:59.215Z,11.27
2017-03-21T00:29:03.646Z,11.24
2017-03-21T00:29:07.855Z,11.31
2017-03-21T00:29:12.059Z,11.27
2017-03-21T00:29:16.503Z,11.26
2017-03-21T00:29:20.829Z,11.17
2017-03-21T00:29:25.274Z,11.28
2017-03-21T00:29:29.715Z,11.21
2017-03-21T00:29:34.026Z,11.24
2017-03-21T00:29:38.222Z,11.27
2017-03-21T00:29:42.539Z,11.28
2017-03-21T00:29:46.854Z,11.27
2017-03-21T00:29:51.288Z,11.17
2017-03-21T00:29:55.606Z,11.24
2017-03-21T00:29:59.800Z,11.13
2017-03-21T00:30:04.289Z,11.28
2017-03-21T00:30:08.717Z,11.23
2017-03-21T00:30:13.032Z,11.24
2017-03-21T00:30:17.536Z,11.27
2017-03-21T00:30:21.987Z,11.26
2017-03-21T00:30:26.306Z,11.26
2017-03-21T00:30:30.728Z,11.26
2017-03-21T00:30:35.033Z,11.28
2017-03-21T00:30:39.464Z,11.26
2017-03-21T00:30:43.893Z,11.26
2017-03-21T00:30:48.318Z,11.16
2017-03-21T00:30:52.755Z,11.28
2017-03-21T00:30:57.105Z,11.23
2017-03-21T00:31:01.534Z,11.27
2017-03-21T00:31:05.959Z,11.16
2017-03-21T00:31:10.401Z,11.26
2017-03-21T00:31:14.841Z,11.2
2017-03-21T00:31:19.268Z,11.27
2017-03-21T00:31:23.578Z,11.2
2017-03-21T00:31:28.005Z,11.28
2017-03-21T00:31:32.464Z,11.27
2017-03-21T00:31:36.666Z,11.11
2017-03-21T00:31:40.975Z,11.28
2017-03-21T00:31:45.405Z,11.21
2017-03-21T00:31:49.488Z,11.19
2017-03-21T00:31:53.923Z,11.2
2017-03-21T00:31:58.239Z,11.16
2017-03-21T00:32:02.550Z,11.17
2017-03-21T00:32:06.987Z,11.16
2017-03-21T00:32:11.298Z,11.17
2017-03-21T00:32:15.610Z,11.11
2017-03-21T00:32:19.924Z,11.17
2017-03-21T00:32:24.124Z,11.13
2017-03-21T00:32:28.437Z,11.17
2017-03-21T00:32:32.751Z,11.2
2017-03-21T00:32:37.067Z,11.21
2017-03-21T00:32:41.273Z,11.27
2017-03-21T00:32:45.486Z,11.17
2017-03-21T00:32:49.812Z,11.2
2017-03-21T00:32:54.139Z,11.26
2017-03-21T00:32:58.461Z,11.26
2017-03-21T00:33:02.777Z,11.11
2017-03-21T00:33:07.210Z,11.21
2017-03-21T00:33:11.535Z,11.12
2017-03-21T00:33:15.988Z,11.17
2017-03-21T00:33:20.427Z,11.19
2017-03-21T00:33:24.628Z,11.17
2017-03-21T00:33:28.951Z,11.2
2017-03-21T00:33:33.276Z,11.17
2017-03-21T00:33:37.479Z,11.13
2017-03-21T00:33:41.795Z,11.24
2017-03-21T00:33:46.120Z,11.21
2017-03-21T00:33:50.324Z,11.21
2017-03-21T00:33:54.766Z,11.23
2017-03-21T00:33:58.968Z,11.19
2017-03-21T00:34:03.408Z,11.16
2017-03-21T00:34:07.734Z,11.19
2017-03-21T00:34:12.167Z,11.17
2017-03-21T00:34:16.598Z,11.17
2017-03-21T00:34:21.034Z,11.26
2017-03-21T00:34:25.359Z,11.21
2017-03-21T00:34:29.793Z,11.21
2017-03-21T00:34:34.224Z,11.13
2017-03-21T00:34:38.420Z,11.17
2017-03-21T00:34:42.736Z,11.17
2017-03-21T00:34:47.166Z,11.19
2017-03-21T00:34:51.485Z,11.2
2017-03-21T00:34:55.944Z,11.21
2017-03-21T00:35:00.376Z,11.23
2017-03-21T00:35:04.824Z,11.16
2017-03-21T00:35:09.252Z,11.19
2017-03-21T00:35:13.568Z,11.23
2017-03-21T00:35:18.000Z,11.27
2017-03-21T00:35:22.444Z,11.23
2017-03-21T00:35:26.538Z,11.21
2017-03-21T00:35:30.854Z,11.23
2017-03-21T00:35:35.049Z,11.2
2017-03-21T00:35:39.242Z,11.17
2017-03-21T00:35:43.441Z,11.16
2017-03-21T00:35:47.790Z,11.19
2017-03-21T00:35:52.109Z,11.19
2017-03-21T00:35:56.535Z,11.16
2017-03-21T00:36:00.968Z,11.17
2017-03-21T00:36:05.436Z,11.19
2017-03-21T00:36:09.627Z,11.2
2017-03-21T00:36:14.061Z,11.19
2017-03-21T00:36:18.500Z,11.17
2017-03-21T00:36:22.940Z,11.17
2017-03-21T00:36:27.254Z,11.19
2017-03-21T00:36:31.677Z,11.24
2017-03-21T00:36:36.110Z,11.17
2017-03-21T00:36:40.420Z,11.16
2017-03-21T00:36:44.729Z,11.23
2017-03-21T00:36:49.162Z,11.2
2017-03-21T00:36:53.251Z,11.21
2017-03-21T00:36:57.562Z,11.21
2017-03-21T00:37:02.022Z,11.21
2017-03-21T00:37:06.335Z,11.16
2017-03-21T00:37:10.775Z,11.21
2017-03-21T00:37:15.208Z,11.19
2017-03-21T00:37:19.538Z,11.21
2017-03-21T00:37:23.972Z,11.2
2017-03-21T00:37:28.294Z,11.21
2017-03-21T00:37:32.498Z,11.13
2017-03-21T00:37:36.935Z,11.2
2017-03-21T00:37:41.251Z,11.21
2017-03-21T00:37:45.589Z,11.2
2017-03-21T00:37:49.919Z,11.26
2017-03-21T00:37:54.241Z,11.26
2017-03-21T00:37:58.683Z,11.17
2017-03-21T00:38:03.132Z,11.19
2017-03-21T00:38:07.446Z,11.13
2017-03-21T00:38:11.759Z,11.16
2017-03-21T00:38:16.201Z,11.21
2017-03-21T00:38:20.639Z,11.12
2017-03-21T00:38:24.962Z,11.2
2017-03-21T00:38:29.396Z,11.23
2017-03-21T00:38:33.839Z,11.27
2017-03-21T00:38:38.274Z,11.23
2017-03-21T00:38:42.476Z,11.13
2017-03-21T00:38:46.905Z,11.19
2017-03-21T00:38:51.339Z,11.17
2017-03-21T00:38:55.659Z,11.24
2017-03-21T00:38:59.982Z,11.2
2017-03-21T00:39:04.212Z,11.23
2017-03-21T00:39:08.664Z,11.17
2017-03-21T00:39:13.108Z,11.13
2017-03-21T00:39:17.551Z,11.16
2017-03-21T00:39:21.989Z,11.23
2017-03-21T00:39:26.316Z,11.16
2017-03-21T00:39:30.439Z,11.23
2017-03-21T00:39:34.868Z,11.13
2017-03-21T00:39:39.186Z,11.21
2017-03-21T00:39:43.511Z,11.24
2017-03-21T00:39:47.941Z,11.2
2017-03-21T00:39:52.138Z,11.17
2017-03-21T00:39:56.574Z,11.17
2017-03-21T00:40:00.804Z,11.13
2017-03-21T00:40:05.239Z,11.12
2017-03-21T00:40:09.552Z,11.13
2017-03-21T00:40:13.885Z,11.2
2017-03-21T00:40:18.317Z,11.17
2017-03-21T00:40:22.750Z,11.13
2017-03-21T00:40:27.179Z,11.19
2017-03-21T00:40:31.501Z,11.13
2017-03-21T00:40:35.934Z,11.16
2017-03-21T00:40:40.361Z,11.17
2017-03-21T00:40:44.553Z,11.12
2017-03-21T00:40:48.992Z,11.16
2017-03-21T00:40:53.424Z,11.21
2017-03-21T00:40:57.510Z,11.19
2017-03-21T00:41:02.148Z,11.19
2017-03-21T00:41:06.586Z,11.13
2017-03-21T00:41:11.012Z,11.2
2017-03-21T00:41:15.332Z,11.13
2017-03-21T00:41:19.760Z,11.16
2017-03-21T00:41:24.070Z,11.17
2017-03-21T00:41:28.540Z,11.12
2017-03-21T00:41:32.853Z,11.21
2017-03-21T00:41:37.283Z,11.17
2017-03-21T00:41:41.476Z,11.11
2017-03-21T00:41:45.786Z,11.24
2017-03-21T00:41:50.093Z,11.19
2017-03-21T00:41:54.520Z,11.21
2017-03-21T00:41:58.844Z,11.17
2017-03-21T00:42:03.258Z,11.13
2017-03-21T00:42:07.688Z,11.17
2017-03-21T00:42:12.125Z,11.12
2017-03-21T00:42:16.588Z,11.16
2017-03-21T00:42:20.785Z,11.16
2017-03-21T00:42:24.981Z,11.12
2017-03-21T00:42:29.177Z,11.16
2017-03-21T00:42:33.614Z,11.13
2017-03-21T00:42:38.048Z,11.17
2017-03-21T00:42:42.129Z,11.21
2017-03-21T00:42:46.451Z,11.17
2017-03-21T00:42:50.777Z,11.09
2017-03-21T00:42:55.219Z,11.13
2017-03-21T00:42:59.655Z,11.21
2017-03-21T00:43:03.990Z,11.19
2017-03-21T00:43:08.428Z,11.19
2017-03-21T00:43:12.864Z,11.13
2017-03-21T00:43:17.067Z,11.13
2017-03-21T00:43:21.512Z,11.11
2017-03-21T00:43:25.954Z,11.12
2017-03-21T00:43:30.282Z,11.13
2017-03-21T00:43:34.616Z,11.17
2017-03-21T00:43:39.064Z,11.16
2017-03-21T00:43:43.409Z,11.11
2017-03-21T00:43:47.747Z,11.13
2017-03-21T00:43:52.068Z,11.2
2017-03-21T00:43:56.394Z,11.12
2017-03-21T00:44:00.719Z,11.09
2017-03-21T00:44:05.369Z,11.19
2017-03-21T00:44:09.814Z,11.21
2017-03-21T00:44:14.149Z,11.12
2017-03-21T00:44:18.459Z,11.13
2017-03-21T00:44:22.896Z,11.19
2017-03-21T00:44:27.219Z,11.19
2017-03-21T00:44:31.541Z,11.2
2017-03-21T00:44:35.734Z,11.21
2017-03-21T00:44:40.181Z,11.2
2017-03-21T00:44:44.496Z,11.2
2017-03-21T00:44:48.928Z,11.16
2017-03-21T00:44:53.403Z,11.16
2017-03-21T00:44:57.723Z,11.16
2017-03-21T00:45:02.190Z,11.13
2017-03-21T00:45:06.502Z,11.2
2017-03-21T00:45:10.816Z,11.2
2017-03-21T00:45:15.131Z,11.17
2017-03-21T00:45:19.375Z,11.19
2017-03-21T00:45:23.589Z,11.17
2017-03-21T00:45:27.911Z,11.11
2017-03-21T00:45:32.223Z,11.17
2017-03-21T00:45:36.654Z,11.21
2017-03-21T00:45:41.083Z,11.12
2017-03-21T00:45:45.387Z,11.17
2017-03-21T00:45:49.814Z,11.17
2017-03-21T00:45:54.132Z,11.17
2017-03-21T00:45:58.323Z,11.13
2017-03-21T00:46:02.639Z,11.23
2017-03-21T00:46:06.598Z,11.12
2017-03-21T00:46:11.031Z,11.13
2017-03-21T00:46:15.460Z,11.17
2017-03-21T00:46:19.898Z,11.16
2017-03-21T00:46:24.211Z,11.12
2017-03-21T00:46:28.643Z,11.13
2017-03-21T00:46:32.957Z,11.17
2017-03-21T00:46:37.030Z,11.11
2017-03-21T00:46:41.339Z,11.09
2017-03-21T00:46:45.539Z,11.2
2017-03-21T00:46:49.965Z,11.16
2017-03-21T00:46:54.282Z,11.13
2017-03-21T00:46:58.367Z,11.17
2017-03-21T00:47:02.687Z,11.2
2017-03-21T00:47:07.001Z,11.13
2017-03-21T00:47:11.436Z,11.2
2017-03-21T00:47:15.765Z,11.19
2017-03-21T00:47:20.239Z,11.21
2017-03-21T00:47:24.676Z,11.16
2017-03-21T00:47:29.106Z,11.13
2017-03-21T00:47:33.422Z,11.17
2017-03-21T00:47:37.874Z,11.09
2017-03-21T00:47:41.951Z,11.16
2017-03-21T00:47:46.264Z,11.12
2017-03-21T00:47:50.598Z,11.12
2017-03-21T00:47:55.047Z,11.16
2017-03-21T00:47:59.258Z,11.11
2017-03-21T00:48:03.900Z,11.19
2017-03-21T00:48:08.111Z,11.12
2017-03-21T00:48:12.475Z,11.11
2017-03-21T00:48:16.799Z,11.16
2017-03-21T00:48:21.125Z,11.17
2017-03-21T00:48:25.567Z,11.2
2017-03-21T00:48:29.765Z,11.12
2017-03-21T00:48:34.189Z,11.13
2017-03-21T00:48:38.624Z,11.16
2017-03-21T00:48:43.075Z,11.12
2017-03-21T00:48:47.511Z,11.16
2017-03-21T00:48:51.953Z,11.09
2017-03-21T00:48:56.394Z,11.13
2017-03-21T00:49:00.605Z,11.11
2017-03-21T00:49:05.345Z,11.09
2017-03-21T00:49:09.660Z,11.12
2017-03-21T00:49:14.093Z,11.11
2017-03-21T00:49:18.540Z,11.13
2017-03-21T00:49:22.857Z,11.13
2017-03-21T00:49:27.178Z,11.13
2017-03-21T00:49:31.616Z,11.09
2017-03-21T00:49:36.052Z,11.11
2017-03-21T00:49:40.366Z,11.12
2017-03-21T00:49:44.793Z,11.09
2017-03-21T00:49:49.111Z,11.19
2017-03-21T00:49:53.593Z,11.11
2017-03-21T00:49:58.028Z,11.12
2017-03-21T00:50:02.717Z,11.17
2017-03-21T00:50:06.926Z,11.11
2017-03-21T00:50:11.359Z,11.09
2017-03-21T00:50:15.788Z,11.17
2017-03-21T00:50:20.097Z,11.16
2017-03-21T00:50:24.295Z,11.17
2017-03-21T00:50:28.619Z,11.09
2017-03-21T00:50:32.927Z,11.12
2017-03-21T00:50:37.234Z,11.12
2017-03-21T00:50:41.551Z,11.11
2017-03-21T00:50:45.985Z,11.17
2017-03-21T00:50:50.321Z,11.19
2017-03-21T00:50:54.762Z,11.16
2017-03-21T00:50:58.969Z,11.03
2017-03-21T00:51:03.309Z,11.12
2017-03-21T00:51:07.501Z,11.12
2017-03-21T00:51:11.931Z,11.08
2017-03-21T00:51:16.370Z,11.11
2017-03-21T00:51:20.676Z,11.16
2017-03-21T00:51:24.863Z,11.12
2017-03-21T00:51:29.298Z,11.08
2017-03-21T00:51:33.733Z,11.06
2017-03-21T00:51:38.043Z,11.05
2017-03-21T00:51:42.478Z,11.08
2017-03-21T00:51:46.799Z,11.13
2017-03-21T00:51:51.238Z,11.12
2017-03-21T00:51:55.428Z,11.08
2017-03-21T00:51:59.630Z,11.12
2017-03-21T00:52:04.115Z,11.12
2017-03-21T00:52:08.547Z,11.05
2017-03-21T00:52:12.862Z,11.08
2017-03-21T00:52:17.216Z,11.06
2017-03-21T00:52:21.538Z,11.06
2017-03-21T00:52:25.976Z,11.02
2017-03-21T00:52:30.404Z,11.09
2017-03-21T00:52:34.843Z,11.16
2017-03-21T00:52:39.163Z,11.12
2017-03-21T00:52:43.246Z,11.12
2017-03-21T00:52:47.572Z,11.12
2017-03-21T00:52:52.049Z,11.11
2017-03-21T00:52:56.369Z,11.12
2017-03-21T00:53:00.687Z,11.16
2017-03-21T00:53:05.009Z,11.06
2017-03-21T00:53:09.335Z,11.03
2017-03-21T00:53:13.533Z,11.09
2017-03-21T00:53:17.973Z,11.12
2017-03-21T00:53:22.303Z,11.12
2017-03-21T00:53:26.755Z,11.11
2017-03-21T00:53:31.193Z,11.13
2017-03-21T00:53:35.397Z,11.06
2017-03-21T00:53:39.608Z,11.11
2017-03-21T00:53:43.936Z,11.12
2017-03-21T00:53:48.382Z,11.16
2017-03-21T00:53:52.703Z,11.08
2017-03-21T00:53:57.036Z,11.03
2017-03-21T00:54:01.520Z,11.11
2017-03-21T00:54:06.047Z,11.06
2017-03-21T00:54:10.363Z,11.17
2017-03-21T00:54:14.802Z,11.03
2017-03-21T00:54:19.246Z,11.08
2017-03-21T00:54:23.448Z,11.11
2017-03-21T00:54:27.764Z,11.12
2017-03-21T00:54:32.085Z,11.09
2017-03-21T00:54:36.518Z,11.06
2017-03-21T00:54:40.720Z,11.12
2017-03-21T00:54:44.918Z,11.08
2017-03-21T00:54:49.365Z,11.11
2017-03-21T00:54:53.679Z,11.09
2017-03-21T00:54:57.887Z,11.08
2017-03-21T00:55:02.322Z,11.03
2017-03-21T00:55:06.525Z,11.03
2017-03-21T00:55:10.836Z,11.12
2017-03-21T00:55:15.150Z,11.05
2017-03-21T00:55:19.467Z,11.09
2017-03-21T00:55:23.906Z,11.09
2017-03-21T00:55:28.339Z,11.08
2017-03-21T00:55:32.766Z,11.08
2017-03-21T00:55:37.197Z,11.16
2017-03-21T00:55:41.527Z,11.12
2017-03-21T00:55:45.981Z,11.12
2017-03-21T00:55:50.419Z,11.11
2017-03-21T00:55:54.611Z,11.12
2017-03-21T00:55:58.927Z,11.19
2017-03-21T00:56:03.270Z,11.08
2017-03-21T00:56:07.581Z,11.12
2017-03-21T00:56:11.885Z,11.11
2017-03-21T00:56:16.207Z,11.16